sensor_id;sensor_type;location;lat;lon;timestamp;P1;durP1;ratioP1;P2;durP2;ratioP2
54959;SDS011;40860;51.710;8.736;2024-01-25T00:01:38;21.30;;;5.28;;
54959;SDS011;40860;51.710;8.736;2024-01-25T00:05:41;29.35;;;5.43;;
54959;SDS011;40860;51.710;8.736;2024-01-25T00:09:46;27.25;;;5.43;;
54959;SDS011;40860;51.710;8.736;2024-01-25T00:13:49;27.50;;;5.80;;
54959;SDS011;40860;51.710;8.736;2024-01-25T00:17:52;21.48;;;4.97;;
54959;SDS011;40860;51.710;8.736;2024-01-25T00:21:56;26.75;;;5.20;;
54959;SDS011;40860;51.710;8.736;2024-01-25T00:26:00;27.50;;;5.25;;
54959;SDS011;40860;51.710;8.736;2024-01-25T00:30:04;27.92;;;5.53;;
54959;SDS011;40860;51.710;8.736;2024-01-25T00:34:07;28.02;;;5.22;;
54959;SDS011;40860;51.710;8.736;2024-01-25T00:38:11;26.13;;;5.45;;
54959;SDS011;40860;51.710;8.736;2024-01-25T00:42:16;26.40;;;5.32;;
54959;SDS011;40860;51.710;8.736;2024-01-25T00:46:22;28.02;;;5.40;;
54959;SDS011;40860;51.710;8.736;2024-01-25T00:50:25;24.73;;;5.15;;
54959;SDS011;40860;51.710;8.736;2024-01-25T00:54:29;22.95;;;5.53;;
54959;SDS011;40860;51.710;8.736;2024-01-25T00:58:34;27.40;;;5.13;;
54959;SDS011;40860;51.710;8.736;2024-01-25T01:02:39;27.08;;;5.97;;
54959;SDS011;40860;51.710;8.736;2024-01-25T01:06:44;25.00;;;5.28;;
54959;SDS011;40860;51.710;8.736;2024-01-25T01:10:49;27.20;;;5.40;;
54959;SDS011;40860;51.710;8.736;2024-01-25T01:14:54;27.27;;;5.45;;
54959;SDS011;40860;51.710;8.736;2024-01-25T01:18:57;26.67;;;4.93;;
54959;SDS011;40860;51.710;8.736;2024-01-25T01:23:06;30.67;;;5.10;;
54959;SDS011;40860;51.710;8.736;2024-01-25T01:27:09;31.42;;;5.70;;
54959;SDS011;40860;51.710;8.736;2024-01-25T01:31:13;26.98;;;5.45;;
54959;SDS011;40860;51.710;8.736;2024-01-25T01:35:16;23.80;;;4.88;;
54959;SDS011;40860;51.710;8.736;2024-01-25T01:39:19;25.92;;;5.55;;
54959;SDS011;40860;51.710;8.736;2024-01-25T01:43:22;23.40;;;5.80;;
54959;SDS011;40860;51.710;8.736;2024-01-25T01:47:26;27.20;;;5.28;;
54959;SDS011;40860;51.710;8.736;2024-01-25T01:51:29;29.65;;;5.35;;
54959;SDS011;40860;51.710;8.736;2024-01-25T01:55:33;21.15;;;5.55;;
54959;SDS011;40860;51.710;8.736;2024-01-25T01:59:36;34.65;;;5.70;;
54959;SDS011;40860;51.710;8.736;2024-01-25T02:03:40;22.75;;;4.97;;
54959;SDS011;40860;51.710;8.736;2024-01-25T02:07:43;27.42;;;5.80;;
54959;SDS011;40860;51.710;8.736;2024-01-25T02:11:46;27.95;;;5.63;;
54959;SDS011;40860;51.710;8.736;2024-01-25T02:15:49;30.58;;;5.40;;
54959;SDS011;40860;51.710;8.736;2024-01-25T02:19:54;32.20;;;6.25;;
54959;SDS011;40860;51.710;8.736;2024-01-25T02:23:58;28.75;;;5.32;;
54959;SDS011;40860;51.710;8.736;2024-01-25T02:28:01;30.23;;;5.40;;
54959;SDS011;40860;51.710;8.736;2024-01-25T02:32:05;22.80;;;5.65;;
54959;SDS011;40860;51.710;8.736;2024-01-25T02:36:08;23.67;;;4.80;;
54959;SDS011;40860;51.710;8.736;2024-01-25T02:40:13;26.27;;;5.15;;
54959;SDS011;40860;51.710;8.736;2024-01-25T02:44:17;31.13;;;6.68;;
54959;SDS011;40860;51.710;8.736;2024-01-25T02:48:20;27.17;;;5.85;;
54959;SDS011;40860;51.710;8.736;2024-01-25T02:52:23;25.88;;;5.28;;
54959;SDS011;40860;51.710;8.736;2024-01-25T02:56:27;30.40;;;5.72;;
54959;SDS011;40860;51.710;8.736;2024-01-25T03:00:34;31.40;;;6.18;;
54959;SDS011;40860;51.710;8.736;2024-01-25T03:04:42;30.15;;;5.78;;
54959;SDS011;40860;51.710;8.736;2024-01-25T03:08:54;25.67;;;5.30;;
54959;SDS011;40860;51.710;8.736;2024-01-25T03:12:58;22.98;;;4.78;;
54959;SDS011;40860;51.710;8.736;2024-01-25T03:17:01;27.25;;;5.35;;
54959;SDS011;40860;51.710;8.736;2024-01-25T03:21:04;21.55;;;5.20;;
54959;SDS011;40860;51.710;8.736;2024-01-25T03:25:07;29.63;;;5.20;;
54959;SDS011;40860;51.710;8.736;2024-01-25T03:29:12;33.03;;;5.50;;
54959;SDS011;40860;51.710;8.736;2024-01-25T03:33:15;23.38;;;4.93;;
54959;SDS011;40860;51.710;8.736;2024-01-25T03:37:18;24.75;;;5.28;;
54959;SDS011;40860;51.710;8.736;2024-01-25T03:41:21;32.47;;;6.32;;
54959;SDS011;40860;51.710;8.736;2024-01-25T03:45:26;35.60;;;5.82;;
54959;SDS011;40860;51.710;8.736;2024-01-25T03:49:30;29.33;;;5.20;;
54959;SDS011;40860;51.710;8.736;2024-01-25T03:53:33;24.63;;;5.03;;
54959;SDS011;40860;51.710;8.736;2024-01-25T03:57:36;27.30;;;5.88;;
54959;SDS011;40860;51.710;8.736;2024-01-25T04:01:43;24.08;;;5.03;;
54959;SDS011;40860;51.710;8.736;2024-01-25T04:05:48;28.40;;;5.35;;
54959;SDS011;40860;51.710;8.736;2024-01-25T04:09:54;24.88;;;5.07;;
54959;SDS011;40860;51.710;8.736;2024-01-25T04:13:57;27.60;;;5.05;;
54959;SDS011;40860;51.710;8.736;2024-01-25T04:18:01;28.63;;;4.97;;
54959;SDS011;40860;51.710;8.736;2024-01-25T04:22:04;31.00;;;4.97;;
54959;SDS011;40860;51.710;8.736;2024-01-25T04:26:08;21.85;;;4.80;;
54959;SDS011;40860;51.710;8.736;2024-01-25T04:30:11;24.98;;;5.43;;
54959;SDS011;40860;51.710;8.736;2024-01-25T04:34:15;23.58;;;5.07;;
54959;SDS011;40860;51.710;8.736;2024-01-25T04:38:18;24.65;;;4.97;;
54959;SDS011;40860;51.710;8.736;2024-01-25T04:42:21;30.35;;;5.07;;
54959;SDS011;40860;51.710;8.736;2024-01-25T04:46:24;33.13;;;5.95;;
54959;SDS011;40860;51.710;8.736;2024-01-25T04:50:29;27.95;;;4.65;;
54959;SDS011;40860;51.710;8.736;2024-01-25T04:54:32;26.52;;;5.30;;
54959;SDS011;40860;51.710;8.736;2024-01-25T04:58:35;23.30;;;4.38;;
54959;SDS011;40860;51.710;8.736;2024-01-25T05:02:37;24.45;;;4.82;;
54959;SDS011;40860;51.710;8.736;2024-01-25T05:06:42;21.58;;;4.90;;
54959;SDS011;40860;51.710;8.736;2024-01-25T05:10:45;24.42;;;4.70;;
54959;SDS011;40860;51.710;8.736;2024-01-25T05:14:47;29.10;;;4.65;;
54959;SDS011;40860;51.710;8.736;2024-01-25T05:18:53;24.67;;;5.30;;
54959;SDS011;40860;51.710;8.736;2024-01-25T05:22:57;26.23;;;4.75;;
54959;SDS011;40860;51.710;8.736;2024-01-25T05:27:00;23.40;;;5.22;;
54959;SDS011;40860;51.710;8.736;2024-01-25T05:31:03;19.58;;;5.07;;
54959;SDS011;40860;51.710;8.736;2024-01-25T05:35:07;22.75;;;4.88;;
54959;SDS011;40860;51.710;8.736;2024-01-25T05:39:12;22.05;;;4.78;;
54959;SDS011;40860;51.710;8.736;2024-01-25T05:43:15;24.70;;;5.20;;
54959;SDS011;40860;51.710;8.736;2024-01-25T05:47:18;29.10;;;5.78;;
54959;SDS011;40860;51.710;8.736;2024-01-25T05:51:21;25.17;;;4.97;;
54959;SDS011;40860;51.710;8.736;2024-01-25T05:55:26;28.77;;;5.32;;
54959;SDS011;40860;51.710;8.736;2024-01-25T05:59:29;31.52;;;7.57;;
54959;SDS011;40860;51.710;8.736;2024-01-25T06:03:32;27.45;;;5.20;;
54959;SDS011;40860;51.710;8.736;2024-01-25T06:07:35;25.55;;;5.55;;
54959;SDS011;40860;51.710;8.736;2024-01-25T06:11:39;26.90;;;5.28;;
54959;SDS011;40860;51.710;8.736;2024-01-25T06:15:42;26.92;;;5.90;;
54959;SDS011;40860;51.710;8.736;2024-01-25T06:19:45;28.17;;;5.20;;
54959;SDS011;40860;51.710;8.736;2024-01-25T06:23:48;28.00;;;5.30;;
54959;SDS011;40860;51.710;8.736;2024-01-25T06:27:52;31.50;;;5.70;;
54959;SDS011;40860;51.710;8.736;2024-01-25T06:31:55;23.20;;;5.20;;
54959;SDS011;40860;51.710;8.736;2024-01-25T06:35:57;27.80;;;5.72;;
54959;SDS011;40860;51.710;8.736;2024-01-25T06:40:00;24.70;;;5.72;;
54959;SDS011;40860;51.710;8.736;2024-01-25T06:44:05;23.98;;;5.43;;
54959;SDS011;40860;51.710;8.736;2024-01-25T06:48:08;24.27;;;4.97;;
54959;SDS011;40860;51.710;8.736;2024-01-25T06:52:11;36.63;;;6.43;;
54959;SDS011;40860;51.710;8.736;2024-01-25T06:56:14;27.65;;;5.47;;
54959;SDS011;40860;51.710;8.736;2024-01-25T07:00:18;26.48;;;5.00;;
54959;SDS011;40860;51.710;8.736;2024-01-25T07:04:22;30.92;;;6.10;;
54959;SDS011;40860;51.710;8.736;2024-01-25T07:08:25;27.92;;;5.65;;
54959;SDS011;40860;51.710;8.736;2024-01-25T07:12:28;27.75;;;5.32;;
54959;SDS011;40860;51.710;8.736;2024-01-25T07:16:33;27.50;;;5.95;;
54959;SDS011;40860;51.710;8.736;2024-01-25T07:20:36;27.35;;;5.75;;
54959;SDS011;40860;51.710;8.736;2024-01-25T07:24:40;27.83;;;6.40;;
54959;SDS011;40860;51.710;8.736;2024-01-25T07:28:42;29.75;;;6.00;;
54959;SDS011;40860;51.710;8.736;2024-01-25T07:32:47;37.05;;;7.18;;
54959;SDS011;40860;51.710;8.736;2024-01-25T07:36:51;29.73;;;6.68;;
54959;SDS011;40860;51.710;8.736;2024-01-25T07:40:54;32.72;;;5.82;;
54959;SDS011;40860;51.710;8.736;2024-01-25T07:44:57;30.08;;;6.35;;
54959;SDS011;40860;51.710;8.736;2024-01-25T07:49:01;25.95;;;6.13;;
54959;SDS011;40860;51.710;8.736;2024-01-25T07:53:04;26.70;;;6.05;;
54959;SDS011;40860;51.710;8.736;2024-01-25T07:57:07;30.75;;;5.65;;
54959;SDS011;40860;51.710;8.736;2024-01-25T08:01:10;26.17;;;5.80;;
54959;SDS011;40860;51.710;8.736;2024-01-25T08:05:15;29.45;;;6.03;;
54959;SDS011;40860;51.710;8.736;2024-01-25T08:09:18;27.92;;;5.88;;
54959;SDS011;40860;51.710;8.736;2024-01-25T08:13:21;32.33;;;6.35;;
54959;SDS011;40860;51.710;8.736;2024-01-25T08:17:24;34.22;;;7.00;;
54959;SDS011;40860;51.710;8.736;2024-01-25T08:21:28;29.50;;;7.03;;
54959;SDS011;40860;51.710;8.736;2024-01-25T08:25:31;30.75;;;6.70;;
54959;SDS011;40860;51.710;8.736;2024-01-25T08:29:35;37.67;;;7.35;;
54959;SDS011;40860;51.710;8.736;2024-01-25T08:33:38;26.73;;;6.75;;
54959;SDS011;40860;51.710;8.736;2024-01-25T08:37:44;34.72;;;7.75;;
54959;SDS011;40860;51.710;8.736;2024-01-25T08:41:47;33.45;;;7.18;;
54959;SDS011;40860;51.710;8.736;2024-01-25T08:45:51;35.65;;;8.05;;
54959;SDS011;40860;51.710;8.736;2024-01-25T08:49:55;30.38;;;6.72;;
54959;SDS011;40860;51.710;8.736;2024-01-25T08:53:59;34.53;;;8.43;;
54959;SDS011;40860;51.710;8.736;2024-01-25T08:58:02;42.53;;;7.75;;
54959;SDS011;40860;51.710;8.736;2024-01-25T09:02:06;34.40;;;8.82;;
54959;SDS011;40860;51.710;8.736;2024-01-25T09:06:10;33.40;;;7.78;;
54959;SDS011;40860;51.710;8.736;2024-01-25T09:10:15;30.45;;;7.90;;
54959;SDS011;40860;51.710;8.736;2024-01-25T09:14:18;29.90;;;8.80;;
54959;SDS011;40860;51.710;8.736;2024-01-25T09:18:20;35.95;;;8.90;;
54959;SDS011;40860;51.710;8.736;2024-01-25T09:22:23;33.65;;;8.20;;
54959;SDS011;40860;51.710;8.736;2024-01-25T09:26:28;40.40;;;9.43;;
54959;SDS011;40860;51.710;8.736;2024-01-25T09:30:31;39.35;;;9.32;;
54959;SDS011;40860;51.710;8.736;2024-01-25T09:34:34;33.63;;;8.45;;
54959;SDS011;40860;51.710;8.736;2024-01-25T09:38:40;30.55;;;8.55;;
54959;SDS011;40860;51.710;8.736;2024-01-25T09:42:44;34.63;;;9.23;;
54959;SDS011;40860;51.710;8.736;2024-01-25T09:46:47;35.90;;;8.88;;
54959;SDS011;40860;51.710;8.736;2024-01-25T09:50:51;38.15;;;8.95;;
54959;SDS011;40860;51.710;8.736;2024-01-25T09:54:57;36.85;;;10.02;;
54959;SDS011;40860;51.710;8.736;2024-01-25T09:59:03;36.55;;;9.60;;
54959;SDS011;40860;51.710;8.736;2024-01-25T10:03:06;35.50;;;10.07;;
54959;SDS011;40860;51.710;8.736;2024-01-25T10:07:11;39.25;;;9.82;;
54959;SDS011;40860;51.710;8.736;2024-01-25T10:11:15;38.78;;;10.80;;
54959;SDS011;40860;51.710;8.736;2024-01-25T10:15:20;36.65;;;10.30;;
54959;SDS011;40860;51.710;8.736;2024-01-25T10:19:22;38.00;;;10.98;;
54959;SDS011;40860;51.710;8.736;2024-01-25T10:23:25;42.15;;;10.82;;
54959;SDS011;40860;51.710;8.736;2024-01-25T10:27:31;29.48;;;10.95;;
54959;SDS011;40860;51.710;8.736;2024-01-25T10:31:36;42.88;;;11.90;;
54959;SDS011;40860;51.710;8.736;2024-01-25T10:35:41;45.40;;;12.43;;
54959;SDS011;40860;51.710;8.736;2024-01-25T10:39:47;40.05;;;12.73;;
54959;SDS011;40860;51.710;8.736;2024-01-25T10:43:51;38.72;;;11.98;;
54959;SDS011;40860;51.710;8.736;2024-01-25T10:47:55;41.83;;;12.23;;
54959;SDS011;40860;51.710;8.736;2024-01-25T10:51:59;40.97;;;12.82;;
54959;SDS011;40860;51.710;8.736;2024-01-25T10:56:02;42.40;;;13.30;;
54959;SDS011;40860;51.710;8.736;2024-01-25T11:00:06;37.80;;;14.43;;
54959;SDS011;40860;51.710;8.736;2024-01-25T11:04:13;37.75;;;14.27;;
54959;SDS011;40860;51.710;8.736;2024-01-25T11:08:18;43.05;;;14.77;;
54959;SDS011;40860;51.710;8.736;2024-01-25T11:12:21;41.03;;;15.52;;
54959;SDS011;40860;51.710;8.736;2024-01-25T11:16:27;33.03;;;13.30;;
54959;SDS011;40860;51.710;8.736;2024-01-25T11:20:33;33.22;;;14.57;;
54959;SDS011;40860;51.710;8.736;2024-01-25T11:24:37;42.75;;;16.00;;
54959;SDS011;40860;51.710;8.736;2024-01-25T11:28:41;40.28;;;15.27;;
54959;SDS011;40860;51.710;8.736;2024-01-25T11:32:43;38.33;;;14.20;;
54959;SDS011;40860;51.710;8.736;2024-01-25T11:36:49;41.38;;;14.35;;
54959;SDS011;40860;51.710;8.736;2024-01-25T11:40:52;41.67;;;14.90;;
54959;SDS011;40860;51.710;8.736;2024-01-25T11:44:59;45.70;;;15.07;;
54959;SDS011;40860;51.710;8.736;2024-01-25T11:49:02;34.72;;;13.70;;
54959;SDS011;40860;51.710;8.736;2024-01-25T11:53:06;38.15;;;13.68;;
54959;SDS011;40860;51.710;8.736;2024-01-25T11:57:09;36.33;;;14.45;;
54959;SDS011;40860;51.710;8.736;2024-01-25T12:01:12;42.03;;;14.75;;
54959;SDS011;40860;51.710;8.736;2024-01-25T12:05:16;40.97;;;13.60;;
54959;SDS011;40860;51.710;8.736;2024-01-25T12:09:21;38.95;;;14.27;;
54959;SDS011;40860;51.710;8.736;2024-01-25T12:13:24;42.67;;;14.07;;
54959;SDS011;40860;51.710;8.736;2024-01-25T12:17:27;38.17;;;14.18;;
54959;SDS011;40860;51.710;8.736;2024-01-25T12:21:32;41.55;;;14.07;;
54959;SDS011;40860;51.710;8.736;2024-01-25T12:25:39;36.58;;;13.73;;
54959;SDS011;40860;51.710;8.736;2024-01-25T12:29:43;40.85;;;13.90;;
54959;SDS011;40860;51.710;8.736;2024-01-25T12:33:46;37.10;;;14.30;;
54959;SDS011;40860;51.710;8.736;2024-01-25T12:37:49;43.95;;;14.13;;
54959;SDS011;40860;51.710;8.736;2024-01-25T12:41:53;36.53;;;12.98;;
54959;SDS011;40860;51.710;8.736;2024-01-25T12:45:56;36.70;;;12.35;;
54959;SDS011;40860;51.710;8.736;2024-01-25T12:50:17;37.75;;;12.88;;
54959;SDS011;40860;51.710;8.736;2024-01-25T12:54:20;36.17;;;13.23;;
54959;SDS011;40860;51.710;8.736;2024-01-25T12:58:24;40.67;;;12.48;;
54959;SDS011;40860;51.710;8.736;2024-01-25T13:02:27;37.25;;;11.75;;
54959;SDS011;40860;51.710;8.736;2024-01-25T13:06:30;37.55;;;11.27;;
54959;SDS011;40860;51.710;8.736;2024-01-25T13:10:33;31.83;;;10.00;;
54959;SDS011;40860;51.710;8.736;2024-01-25T13:14:37;35.63;;;10.63;;
54959;SDS011;40860;51.710;8.736;2024-01-25T13:18:40;35.83;;;10.20;;
54959;SDS011;40860;51.710;8.736;2024-01-25T13:22:43;27.50;;;8.98;;
54959;SDS011;40860;51.710;8.736;2024-01-25T13:26:46;34.15;;;9.77;;
54959;SDS011;40860;51.710;8.736;2024-01-25T13:30:52;36.38;;;9.82;;
54959;SDS011;40860;51.710;8.736;2024-01-25T13:34:56;35.50;;;10.40;;
54959;SDS011;40860;51.710;8.736;2024-01-25T13:38:59;33.03;;;9.63;;
54959;SDS011;40860;51.710;8.736;2024-01-25T13:43:02;34.38;;;10.18;;
54959;SDS011;40860;51.710;8.736;2024-01-25T13:47:06;34.28;;;11.05;;
54959;SDS011;40860;51.710;8.736;2024-01-25T13:51:11;28.83;;;8.95;;
54959;SDS011;40860;51.710;8.736;2024-01-25T13:55:14;32.28;;;8.82;;
54959;SDS011;40860;51.710;8.736;2024-01-25T13:59:17;28.38;;;8.52;;
54959;SDS011;40860;51.710;8.736;2024-01-25T14:03:22;27.13;;;8.55;;
54959;SDS011;40860;51.710;8.736;2024-01-25T14:07:26;29.23;;;8.02;;
54959;SDS011;40860;51.710;8.736;2024-01-25T14:11:29;26.80;;;8.05;;
54959;SDS011;40860;51.710;8.736;2024-01-25T14:15:32;26.80;;;7.22;;
54959;SDS011;40860;51.710;8.736;2024-01-25T14:19:37;26.52;;;7.65;;
54959;SDS011;40860;51.710;8.736;2024-01-25T14:23:40;30.45;;;7.45;;
54959;SDS011;40860;51.710;8.736;2024-01-25T14:27:42;23.58;;;6.45;;
54959;SDS011;40860;51.710;8.736;2024-01-25T14:31:49;25.20;;;6.07;;
54959;SDS011;40860;51.710;8.736;2024-01-25T14:35:53;25.25;;;7.00;;
54959;SDS011;40860;51.710;8.736;2024-01-25T14:39:56;24.10;;;6.38;;
54959;SDS011;40860;51.710;8.736;2024-01-25T14:44:19;23.95;;;5.93;;
54959;SDS011;40860;51.710;8.736;2024-01-25T14:48:22;22.05;;;5.97;;
54959;SDS011;40860;51.710;8.736;2024-01-25T14:52:26;30.77;;;7.55;;
54959;SDS011;40860;51.710;8.736;2024-01-25T14:56:29;25.98;;;6.80;;
54959;SDS011;40860;51.710;8.736;2024-01-25T15:00:32;23.80;;;6.57;;
54959;SDS011;40860;51.710;8.736;2024-01-25T15:04:35;16.60;;;5.28;;
54959;SDS011;40860;51.710;8.736;2024-01-25T15:08:40;26.60;;;5.90;;
54959;SDS011;40860;51.710;8.736;2024-01-25T15:12:43;22.65;;;6.20;;
54959;SDS011;40860;51.710;8.736;2024-01-25T15:16:46;19.90;;;5.50;;
54959;SDS011;40860;51.710;8.736;2024-01-25T15:20:50;24.63;;;5.07;;
54959;SDS011;40860;51.710;8.736;2024-01-25T15:24:55;20.38;;;5.43;;
54959;SDS011;40860;51.710;8.736;2024-01-25T15:28:59;19.45;;;5.30;;
54959;SDS011;40860;51.710;8.736;2024-01-25T15:33:02;18.92;;;5.38;;
54959;SDS011;40860;51.710;8.736;2024-01-25T15:37:07;16.65;;;5.90;;
54959;SDS011;40860;51.710;8.736;2024-01-25T15:41:11;19.00;;;5.85;;
54959;SDS011;40860;51.710;8.736;2024-01-25T15:45:14;17.40;;;5.45;;
54959;SDS011;40860;51.710;8.736;2024-01-25T15:49:17;13.50;;;5.47;;
54959;SDS011;40860;51.710;8.736;2024-01-25T15:53:21;15.75;;;5.70;;
54959;SDS011;40860;51.710;8.736;2024-01-25T15:57:26;21.00;;;5.38;;
54959;SDS011;40860;51.710;8.736;2024-01-25T16:01:32;17.67;;;5.47;;
54959;SDS011;40860;51.710;8.736;2024-01-25T16:05:35;17.58;;;6.13;;
54959;SDS011;40860;51.710;8.736;2024-01-25T16:09:38;20.80;;;7.60;;
54959;SDS011;40860;51.710;8.736;2024-01-25T16:13:42;27.23;;;8.45;;
54959;SDS011;40860;51.710;8.736;2024-01-25T16:17:46;20.08;;;7.38;;
54959;SDS011;40860;51.710;8.736;2024-01-25T16:21:49;26.15;;;10.82;;
54959;SDS011;40860;51.710;8.736;2024-01-25T16:25:52;24.75;;;8.85;;
54959;SDS011;40860;51.710;8.736;2024-01-25T16:29:57;23.98;;;8.20;;
54959;SDS011;40860;51.710;8.736;2024-01-25T16:34:00;23.77;;;8.45;;
54959;SDS011;40860;51.710;8.736;2024-01-25T16:38:07;20.95;;;8.15;;
54959;SDS011;40860;51.710;8.736;2024-01-25T16:42:11;21.65;;;7.50;;
54959;SDS011;40860;51.710;8.736;2024-01-25T16:46:16;19.42;;;8.18;;
54959;SDS011;40860;51.710;8.736;2024-01-25T16:50:19;21.10;;;6.82;;
54959;SDS011;40860;51.710;8.736;2024-01-25T16:54:22;21.42;;;7.38;;
54959;SDS011;40860;51.710;8.736;2024-01-25T16:58:25;25.92;;;8.10;;
54959;SDS011;40860;51.710;8.736;2024-01-25T17:02:29;27.17;;;8.02;;
54959;SDS011;40860;51.710;8.736;2024-01-25T17:06:32;19.40;;;7.07;;
54959;SDS011;40860;51.710;8.736;2024-01-25T17:10:35;29.63;;;9.20;;
54959;SDS011;40860;51.710;8.736;2024-01-25T17:14:38;18.08;;;5.20;;
54959;SDS011;40860;51.710;8.736;2024-01-25T17:18:42;19.80;;;6.28;;
54959;SDS011;40860;51.710;8.736;2024-01-25T17:22:45;15.90;;;5.22;;
54959;SDS011;40860;51.710;8.736;2024-01-25T17:26:49;23.55;;;6.10;;
54959;SDS011;40860;51.710;8.736;2024-01-25T17:30:51;17.80;;;5.30;;
54959;SDS011;40860;51.710;8.736;2024-01-25T17:34:56;23.92;;;5.85;;
54959;SDS011;40860;51.710;8.736;2024-01-25T17:38:59;19.90;;;6.22;;
54959;SDS011;40860;51.710;8.736;2024-01-25T17:43:01;18.85;;;5.90;;
54959;SDS011;40860;51.710;8.736;2024-01-25T17:47:05;21.10;;;5.32;;
54959;SDS011;40860;51.710;8.736;2024-01-25T17:51:09;15.80;;;5.50;;
54959;SDS011;40860;51.710;8.736;2024-01-25T17:55:14;23.05;;;6.15;;
54959;SDS011;40860;51.710;8.736;2024-01-25T17:59:17;24.10;;;5.60;;
54959;SDS011;40860;51.710;8.736;2024-01-25T18:03:22;20.50;;;5.40;;
54959;SDS011;40860;51.710;8.736;2024-01-25T18:07:26;23.80;;;6.90;;
54959;SDS011;40860;51.710;8.736;2024-01-25T18:11:29;24.60;;;6.72;;
54959;SDS011;40860;51.710;8.736;2024-01-25T18:15:32;20.63;;;6.00;;
54959;SDS011;40860;51.710;8.736;2024-01-25T18:19:35;18.40;;;6.20;;
54959;SDS011;40860;51.710;8.736;2024-01-25T18:23:39;26.95;;;6.03;;
54959;SDS011;40860;51.710;8.736;2024-01-25T18:27:42;19.33;;;6.18;;
54959;SDS011;40860;51.710;8.736;2024-01-25T18:31:45;22.02;;;6.90;;
54959;SDS011;40860;51.710;8.736;2024-01-25T18:35:48;17.80;;;6.55;;
54959;SDS011;40860;51.710;8.736;2024-01-25T18:39:53;21.40;;;6.20;;
54959;SDS011;40860;51.710;8.736;2024-01-25T18:43:56;16.80;;;5.75;;
54959;SDS011;40860;51.710;8.736;2024-01-25T18:47:59;23.90;;;6.18;;
54959;SDS011;40860;51.710;8.736;2024-01-25T18:52:03;21.25;;;6.43;;
54959;SDS011;40860;51.710;8.736;2024-01-25T18:56:08;17.77;;;6.30;;
54959;SDS011;40860;51.710;8.736;2024-01-25T19:00:26;23.13;;;6.95;;
54959;SDS011;40860;51.710;8.736;2024-01-25T19:04:29;25.60;;;6.80;;
54959;SDS011;40860;51.710;8.736;2024-01-25T19:08:33;22.40;;;6.60;;
54959;SDS011;40860;51.710;8.736;2024-01-25T19:12:37;25.02;;;6.88;;
54959;SDS011;40860;51.710;8.736;2024-01-25T19:16:40;21.98;;;6.72;;
54959;SDS011;40860;51.710;8.736;2024-01-25T19:20:44;23.95;;;7.32;;
54959;SDS011;40860;51.710;8.736;2024-01-25T19:24:47;19.85;;;6.18;;
54959;SDS011;40860;51.710;8.736;2024-01-25T19:28:51;22.63;;;6.88;;
54959;SDS011;40860;51.710;8.736;2024-01-25T19:32:54;19.45;;;6.25;;
54959;SDS011;40860;51.710;8.736;2024-01-25T19:36:57;23.75;;;7.00;;
54959;SDS011;40860;51.710;8.736;2024-01-25T19:40:59;26.15;;;7.00;;
54959;SDS011;40860;51.710;8.736;2024-01-25T19:45:04;23.58;;;5.60;;
54959;SDS011;40860;51.710;8.736;2024-01-25T19:49:07;22.15;;;5.55;;
54959;SDS011;40860;51.710;8.736;2024-01-25T19:53:12;18.13;;;5.07;;
54959;SDS011;40860;51.710;8.736;2024-01-25T19:57:15;20.35;;;5.32;;
54959;SDS011;40860;51.710;8.736;2024-01-25T20:01:20;19.52;;;5.85;;
54959;SDS011;40860;51.710;8.736;2024-01-25T20:05:24;21.58;;;5.65;;
54959;SDS011;40860;51.710;8.736;2024-01-25T20:09:27;19.65;;;5.45;;
54959;SDS011;40860;51.710;8.736;2024-01-25T20:13:30;22.85;;;5.93;;
54959;SDS011;40860;51.710;8.736;2024-01-25T20:17:35;21.98;;;5.32;;
54959;SDS011;40860;51.710;8.736;2024-01-25T20:21:38;19.63;;;5.28;;
54959;SDS011;40860;51.710;8.736;2024-01-25T20:25:41;22.35;;;5.50;;
54959;SDS011;40860;51.710;8.736;2024-01-25T20:29:44;17.40;;;5.30;;
54959;SDS011;40860;51.710;8.736;2024-01-25T20:33:48;18.60;;;5.90;;
54959;SDS011;40860;51.710;8.736;2024-01-25T20:37:52;25.25;;;6.40;;
54959;SDS011;40860;51.710;8.736;2024-01-25T20:41:55;22.70;;;6.57;;
54959;SDS011;40860;51.710;8.736;2024-01-25T20:45:58;22.33;;;6.28;;
54959;SDS011;40860;51.710;8.736;2024-01-25T20:50:03;21.98;;;5.82;;
54959;SDS011;40860;51.710;8.736;2024-01-25T20:54:06;20.42;;;6.50;;
54959;SDS011;40860;51.710;8.736;2024-01-25T20:58:09;20.92;;;6.13;;
54959;SDS011;40860;51.710;8.736;2024-01-25T21:02:12;25.17;;;6.57;;
54959;SDS011;40860;51.710;8.736;2024-01-25T21:06:17;20.40;;;6.53;;
54959;SDS011;40860;51.710;8.736;2024-01-25T21:10:22;22.90;;;6.47;;
54959;SDS011;40860;51.710;8.736;2024-01-25T21:14:27;23.88;;;6.10;;
54959;SDS011;40860;51.710;8.736;2024-01-25T21:18:31;24.13;;;6.22;;
54959;SDS011;40860;51.710;8.736;2024-01-25T21:22:35;20.88;;;5.65;;
54959;SDS011;40860;51.710;8.736;2024-01-25T21:26:38;27.75;;;6.22;;
54959;SDS011;40860;51.710;8.736;2024-01-25T21:30:41;16.23;;;5.18;;
54959;SDS011;40860;51.710;8.736;2024-01-25T21:34:44;20.75;;;5.32;;
54959;SDS011;40860;51.710;8.736;2024-01-25T21:38:48;23.00;;;5.50;;
54959;SDS011;40860;51.710;8.736;2024-01-25T21:42:51;22.15;;;5.45;;
54959;SDS011;40860;51.710;8.736;2024-01-25T21:46:54;19.25;;;5.13;;
54959;SDS011;40860;51.710;8.736;2024-01-25T21:50:57;18.38;;;5.43;;
54959;SDS011;40860;51.710;8.736;2024-01-25T21:55:05;18.00;;;5.30;;
54959;SDS011;40860;51.710;8.736;2024-01-25T21:59:12;20.85;;;5.13;;
54959;SDS011;40860;51.710;8.736;2024-01-25T22:03:15;20.17;;;6.07;;
54959;SDS011;40860;51.710;8.736;2024-01-25T22:07:18;16.48;;;5.50;;
54959;SDS011;40860;51.710;8.736;2024-01-25T22:11:23;16.08;;;5.40;;
54959;SDS011;40860;51.710;8.736;2024-01-25T22:15:26;23.38;;;5.30;;
54959;SDS011;40860;51.710;8.736;2024-01-25T22:19:29;16.30;;;4.97;;
54959;SDS011;40860;51.710;8.736;2024-01-25T22:23:34;19.33;;;5.10;;
54959;SDS011;40860;51.710;8.736;2024-01-25T22:27:38;20.20;;;5.30;;
54959;SDS011;40860;51.710;8.736;2024-01-25T22:31:41;16.02;;;4.85;;
54959;SDS011;40860;51.710;8.736;2024-01-25T22:35:44;11.55;;;4.35;;
54959;SDS011;40860;51.710;8.736;2024-01-25T22:39:47;20.92;;;5.60;;
54959;SDS011;40860;51.710;8.736;2024-01-25T22:43:51;17.17;;;5.05;;
54959;SDS011;40860;51.710;8.736;2024-01-25T22:47:54;15.13;;;5.18;;
54959;SDS011;40860;51.710;8.736;2024-01-25T22:51:57;19.42;;;5.43;;
54959;SDS011;40860;51.710;8.736;2024-01-25T22:56:01;12.07;;;4.82;;
54959;SDS011;40860;51.710;8.736;2024-01-25T23:00:06;16.65;;;5.10;;
54959;SDS011;40860;51.710;8.736;2024-01-25T23:04:15;18.67;;;4.57;;
54959;SDS011;40860;51.710;8.736;2024-01-25T23:08:18;16.90;;;4.68;;
54959;SDS011;40860;51.710;8.736;2024-01-25T23:12:21;15.88;;;4.55;;
54959;SDS011;40860;51.710;8.736;2024-01-25T23:16:25;11.88;;;4.30;;
54959;SDS011;40860;51.710;8.736;2024-01-25T23:20:29;9.63;;;4.25;;
54959;SDS011;40860;51.710;8.736;2024-01-25T23:24:32;13.38;;;4.88;;
54959;SDS011;40860;51.710;8.736;2024-01-25T23:28:35;10.23;;;4.10;;
54959;SDS011;40860;51.710;8.736;2024-01-25T23:32:39;11.80;;;3.90;;
54959;SDS011;40860;51.710;8.736;2024-01-25T23:36:43;10.07;;;4.15;;
54959;SDS011;40860;51.710;8.736;2024-01-25T23:40:45;10.13;;;4.22;;
54959;SDS011;40860;51.710;8.736;2024-01-25T23:44:48;9.52;;;3.67;;
54959;SDS011;40860;51.710;8.736;2024-01-25T23:48:53;8.70;;;3.88;;
54959;SDS011;40860;51.710;8.736;2024-01-25T23:52:56;10.90;;;3.58;;
54959;SDS011;40860;51.710;8.736;2024-01-25T23:56:59;9.45;;;3.75;;
